Hilltop, New Jersey
Current Conditions -  °F | °C
As of 6:54 AM on Sunday 21 Dec 2014 (Local Time) from KPHL Reporting Station
Broken Clouds Broken Clouds  
Wind Chill: 31°   Ceiling: 11000
Heat Index: 31°   Visibility: 10mi
Dew Point: 22°   Wind: 3mph
Humidity: 69%   Direction: 330°NNW
Pressure: 30.33"   Gusts: NA
Location:  39.778°N, 75.0552°W
Report Text: KPHL 211154Z 33003KT 10SM BKN110 M01/M06 A3033 RMK AO2 SLP271 T10061056 10017 21006 53009
Loading
Personal Weather Stations






























Interactive Weather Map New forecast layout! Learn more

10-Day Weather Forecast

Advertisements
Track Severe Weather on mobile